createdAt,value
2023-05-26T00:02:26.364Z,10.98
2023-05-26T00:04:59.591Z,10.45
2023-05-26T00:07:34.114Z,11.18
2023-05-26T00:10:04.995Z,10.63
2023-05-26T00:12:34.755Z,12.05
2023-05-26T00:15:04.433Z,10.82
2023-05-26T00:17:34.076Z,12.07
2023-05-26T00:20:05.612Z,11.60
2023-05-26T00:22:38.810Z,11.60
2023-05-26T00:25:09.685Z,11.27
2023-05-26T00:27:39.326Z,10.88
2023-05-26T00:30:11.772Z,10.93
2023-05-26T00:32:41.778Z,10.48
2023-05-26T00:35:12.579Z,10.63
2023-05-26T00:37:44.788Z,10.70
2023-05-26T00:40:15.905Z,10.90
2023-05-26T00:42:45.816Z,11.45
2023-05-26T00:45:15.697Z,11.98
2023-05-26T00:47:45.568Z,11.63
2023-05-26T00:50:18.523Z,11.88
2023-05-26T00:52:51.201Z,12.32
2023-05-26T00:55:22.663Z,11.93
2023-05-26T00:57:52.765Z,11.95
2023-05-26T01:00:24.030Z,11.55
2023-05-26T01:03:00.578Z,11.30
2023-05-26T01:05:30.401Z,11.23
2023-05-26T01:08:03.857Z,11.32
2023-05-26T01:10:34.141Z,11.30
2023-05-26T01:13:08.872Z,11.68
2023-05-26T01:15:44.804Z,11.10
2023-05-26T01:18:18.370Z,11.27
2023-05-26T01:20:55.263Z,11.32
2023-05-26T01:24:02.922Z,11.07
2023-05-26T01:26:41.308Z,11.60
2023-05-26T01:29:16.365Z,10.80
2023-05-26T01:31:48.341Z,12.25
2023-05-26T01:34:18.022Z,11.27
2023-05-26T01:36:47.639Z,10.88
2023-05-26T01:39:17.736Z,10.00
2023-05-26T01:41:52.611Z,10.23
2023-05-26T01:44:30.584Z,10.05
2023-05-26T01:47:01.601Z,11.48
2023-05-26T01:49:36.771Z,10.50
2023-05-26T01:52:09.453Z,10.90
2023-05-26T01:54:46.783Z,9.40
2023-05-26T01:57:18.527Z,10.43
2023-05-26T01:59:55.761Z,10.15
2023-05-26T02:02:25.533Z,9.57
2023-05-26T02:04:57.247Z,9.93
2023-05-26T02:07:26.856Z,10.35
2023-05-26T02:09:57.733Z,10.27
2023-05-26T02:12:27.408Z,10.23
2023-05-26T02:15:01.821Z,10.00
2023-05-26T02:17:32.776Z,10.18
2023-05-26T02:20:04.622Z,9.82
2023-05-26T02:22:34.857Z,9.75
2023-05-26T02:25:04.547Z,11.38
2023-05-26T02:27:34.194Z,10.02
2023-05-26T02:30:09.098Z,10.05
2023-05-26T02:32:39.230Z,9.40
2023-05-26T02:35:10.752Z,9.68
2023-05-26T02:37:43.414Z,9.73
2023-05-26T02:40:13.936Z,9.80
2023-05-26T02:42:43.600Z,10.45
2023-05-26T02:45:16.080Z,9.32
2023-05-26T02:47:45.775Z,10.00
2023-05-26T02:50:19.722Z,9.50
2023-05-26T02:52:49.315Z,10.30
2023-05-26T02:55:19.774Z,9.27
2023-05-26T02:57:49.465Z,8.95
2023-05-26T03:00:23.830Z,9.68
2023-05-26T03:02:53.525Z,8.90
2023-05-26T03:05:23.239Z,8.55
2023-05-26T03:07:52.883Z,8.93
2023-05-26T03:10:22.671Z,8.95
2023-05-26T03:12:52.306Z,9.20
2023-05-26T03:15:24.520Z,9.57
2023-05-26T03:17:54.283Z,9.02
2023-05-26T03:20:25.074Z,9.55
2023-05-26T03:22:56.729Z,8.88
2023-05-26T03:25:26.646Z,9.45
2023-05-26T03:27:56.746Z,9.07
2023-05-26T03:30:29.574Z,8.27
2023-05-26T03:33:02.081Z,8.45
2023-05-26T03:35:32.779Z,8.48
2023-05-26T03:38:02.623Z,8.65
2023-05-26T03:40:32.213Z,7.43
2023-05-26T03:43:02.946Z,8.25
2023-05-26T03:45:35.291Z,8.35
2023-05-26T03:48:05.761Z,8.63
2023-05-26T03:50:35.466Z,8.82
2023-05-26T03:53:05.276Z,8.32
2023-05-26T03:55:37.784Z,8.23
2023-05-26T03:58:07.986Z,10.25
2023-05-26T04:00:40.282Z,8.63
2023-05-26T04:03:10.031Z,7.85
2023-05-26T04:05:39.834Z,7.75
2023-05-26T04:08:09.607Z,7.68
2023-05-26T04:10:39.717Z,7.50
2023-05-26T04:13:09.384Z,7.68
2023-05-26T04:15:41.679Z,7.28
2023-05-26T04:18:11.621Z,7.00
2023-05-26T04:20:44.775Z,7.05
2023-05-26T04:23:14.579Z,6.70
2023-05-26T04:25:44.833Z,6.53
2023-05-26T04:28:15.414Z,6.65
2023-05-26T04:30:47.724Z,5.30
2023-05-26T04:33:17.672Z,5.90
2023-05-26T04:35:49.692Z,4.78
2023-05-26T04:38:21.742Z,5.22
2023-05-26T04:40:51.581Z,5.40
2023-05-26T04:43:28.931Z,5.30
2023-05-26T04:46:03.911Z,5.43
2023-05-26T04:48:35.538Z,5.60
2023-05-26T04:51:05.159Z,5.53
2023-05-26T04:53:35.733Z,5.32
2023-05-26T04:56:06.907Z,5.75
2023-05-26T04:58:39.517Z,5.75
2023-05-26T05:01:12.794Z,5.22
2023-05-26T05:03:44.529Z,5.57
2023-05-26T05:06:16.112Z,6.05
2023-05-26T05:08:45.913Z,5.10
2023-05-26T05:11:15.954Z,5.55
2023-05-26T05:13:45.583Z,5.90
2023-05-26T05:16:17.993Z,5.95
2023-05-26T05:18:47.720Z,6.25
2023-05-26T05:21:17.554Z,5.68
2023-05-26T05:23:47.850Z,5.72
2023-05-26T05:26:19.380Z,5.30
2023-05-26T05:28:49.016Z,5.25
2023-05-26T05:31:31.226Z,5.28
2023-05-26T05:34:00.824Z,5.07
2023-05-26T05:36:31.748Z,5.35
2023-05-26T05:39:01.785Z,4.50
2023-05-26T05:41:31.484Z,5.20
2023-05-26T05:44:01.897Z,4.80
2023-05-26T05:46:34.806Z,5.13
2023-05-26T05:49:05.644Z,5.05
2023-05-26T05:51:35.248Z,4.82
2023-05-26T05:54:05.883Z,4.50
2023-05-26T05:56:35.656Z,4.82
2023-05-26T05:59:05.436Z,4.38
2023-05-26T06:01:38.028Z,4.40
2023-05-26T06:04:07.837Z,5.10
2023-05-26T06:06:39.453Z,4.60
2023-05-26T06:09:09.204Z,4.70
2023-05-26T06:11:39.725Z,4.15
2023-05-26T06:14:11.342Z,5.35
2023-05-26T06:16:52.792Z,4.28
2023-05-26T06:19:22.512Z,4.43
2023-05-26T06:21:53.177Z,4.75
2023-05-26T06:24:22.756Z,4.20
2023-05-26T06:26:52.417Z,4.55
2023-05-26T06:29:22.119Z,4.50
2023-05-26T06:31:55.838Z,4.25
2023-05-26T06:34:26.738Z,5.00
2023-05-26T06:36:58.778Z,4.43
2023-05-26T06:39:29.191Z,4.10
2023-05-26T06:41:58.781Z,4.38
2023-05-26T06:44:29.757Z,4.22
2023-05-26T06:47:02.771Z,4.40
2023-05-26T06:49:35.112Z,4.43
2023-05-26T06:52:06.745Z,4.30
2023-05-26T06:54:36.379Z,4.20
2023-05-26T06:57:06.673Z,4.28
2023-05-26T06:59:36.280Z,4.18
2023-05-26T07:02:08.592Z,4.05
2023-05-26T07:04:38.327Z,4.10
2023-05-26T07:07:08.149Z,3.58
2023-05-26T07:09:38.774Z,5.03
2023-05-26T07:12:10.377Z,4.10
2023-05-26T07:14:39.997Z,4.15
2023-05-26T07:17:13.141Z,4.20
2023-05-26T07:19:43.718Z,4.18
2023-05-26T07:22:13.322Z,4.32
2023-05-26T07:24:42.955Z,4.20
2023-05-26T07:27:14.793Z,4.03
2023-05-26T07:29:46.130Z,4.00
2023-05-26T07:32:18.828Z,4.20
2023-05-26T07:34:48.558Z,4.10
2023-05-26T07:37:18.753Z,3.88
2023-05-26T07:39:48.437Z,4.20
2023-05-26T07:42:18.113Z,3.95
2023-05-26T07:44:47.810Z,4.03
2023-05-26T07:47:20.085Z,3.53
2023-05-26T07:49:50.856Z,3.83
2023-05-26T07:52:20.551Z,4.18
2023-05-26T07:54:50.145Z,3.40
2023-05-26T07:57:29.497Z,3.60
2023-05-26T08:00:01.273Z,4.22
2023-05-26T08:02:33.976Z,3.83
2023-05-26T08:05:04.287Z,3.50
2023-05-26T08:07:33.938Z,4.22
2023-05-26T08:10:03.591Z,4.03
2023-05-26T08:12:35.734Z,3.88
2023-05-26T08:15:07.752Z,4.13
2023-05-26T08:17:42.018Z,3.70
2023-05-26T08:20:12.778Z,4.73
2023-05-26T08:22:42.747Z,3.97
2023-05-26T08:25:15.757Z,3.90
2023-05-26T08:27:45.526Z,4.10
2023-05-26T08:30:15.761Z,4.15
2023-05-26T08:32:48.811Z,4.30
2023-05-26T08:35:18.643Z,4.28
2023-05-26T08:37:48.218Z,4.15
2023-05-26T08:40:18.653Z,4.50
2023-05-26T08:42:53.470Z,4.40
2023-05-26T08:45:23.783Z,4.00
2023-05-26T08:47:59.160Z,3.67
2023-05-26T08:55:51.811Z,3.47
2023-05-26T08:58:24.039Z,3.45
2023-05-26T09:00:53.870Z,4.03
2023-05-26T09:03:26.335Z,3.60
2023-05-26T09:05:57.567Z,3.63
2023-05-26T09:08:27.953Z,3.63
2023-05-26T09:10:58.774Z,3.85
2023-05-26T09:13:29.859Z,3.75
2023-05-26T09:16:10.009Z,4.00
2023-05-26T09:18:49.574Z,3.40
2023-05-26T09:21:19.940Z,4.18
2023-05-26T09:23:58.204Z,4.00
2023-05-26T09:26:32.740Z,4.03
2023-05-26T09:29:03.085Z,3.50
2023-05-26T09:31:43.834Z,3.40
2023-05-26T09:34:18.604Z,3.67
2023-05-26T09:36:48.329Z,3.60
2023-05-26T09:39:18.058Z,3.63
2023-05-26T09:41:49.365Z,4.10
2023-05-26T09:44:20.950Z,3.75
2023-05-26T09:46:54.004Z,3.70
2023-05-26T09:49:26.541Z,3.63
2023-05-26T09:52:10.412Z,3.58
2023-05-26T09:54:43.437Z,3.70
2023-05-26T09:57:15.898Z,3.92
2023-05-26T09:59:52.098Z,3.60
2023-05-26T10:02:23.723Z,3.30
2023-05-26T10:04:57.798Z,3.90
2023-05-26T10:07:28.449Z,3.72
2023-05-26T10:10:02.809Z,3.50
2023-05-26T10:12:34.600Z,3.38
2023-05-26T10:15:06.766Z,3.40
2023-05-26T10:17:37.758Z,3.35
2023-05-26T10:20:15.257Z,3.28
2023-05-26T10:22:52.910Z,3.75
2023-05-26T10:25:27.939Z,3.30
2023-05-26T10:28:05.781Z,3.70
2023-05-26T10:30:36.710Z,3.25
2023-05-26T10:33:12.780Z,3.65
2023-05-26T10:36:00.820Z,3.17
2023-05-26T10:38:32.890Z,3.15
2023-05-26T10:41:02.566Z,3.20
2023-05-26T10:43:33.774Z,3.33
2023-05-26T10:46:07.690Z,2.85
2023-05-26T10:48:40.796Z,2.97
2023-05-26T10:51:22.427Z,2.92
2023-05-26T10:53:52.450Z,3.38
2023-05-26T10:56:26.792Z,3.35
2023-05-26T10:59:01.780Z,3.40
2023-05-26T11:01:33.149Z,3.42
2023-05-26T11:04:11.568Z,3.28
2023-05-26T11:06:51.854Z,3.50
2023-05-26T11:09:30.811Z,3.22
2023-05-26T11:12:02.237Z,3.70
2023-05-26T11:14:34.440Z,3.65
2023-05-26T11:17:05.917Z,3.13
2023-05-26T11:19:36.991Z,3.33
2023-05-26T11:22:11.064Z,3.47
2023-05-26T11:24:42.762Z,3.28
2023-05-26T11:27:17.334Z,3.30
2023-05-26T11:29:50.672Z,3.15
2023-05-26T11:32:20.397Z,3.42
2023-05-26T11:34:50.071Z,3.00
2023-05-26T11:37:25.172Z,3.20
2023-05-26T11:39:55.778Z,3.47
2023-05-26T11:42:25.444Z,3.05
2023-05-26T11:44:55.213Z,2.97
2023-05-26T11:47:25.703Z,3.03
2023-05-26T11:49:55.404Z,3.30
2023-05-26T11:52:27.598Z,3.33
2023-05-26T11:54:58.572Z,2.97
2023-05-26T11:57:32.431Z,3.35
2023-05-26T12:00:10.501Z,3.28
2023-05-26T12:02:40.905Z,3.75
2023-05-26T12:05:21.171Z,3.30
2023-05-26T12:08:10.840Z,3.25
2023-05-26T12:10:44.777Z,3.30
2023-05-26T12:13:14.502Z,3.60
2023-05-26T12:15:53.702Z,3.40
2023-05-26T12:18:26.110Z,2.90
2023-05-26T12:20:56.168Z,3.70
2023-05-26T12:23:32.512Z,3.47
2023-05-26T12:26:02.148Z,3.30
2023-05-26T12:28:32.052Z,3.60
2023-05-26T12:31:01.696Z,3.90
2023-05-26T12:33:31.664Z,3.72
2023-05-26T12:36:01.663Z,3.38
2023-05-26T12:38:43.595Z,2.80
2023-05-26T12:41:13.528Z,3.50
2023-05-26T12:43:43.829Z,3.17
2023-05-26T12:46:14.831Z,3.33
2023-05-26T12:48:44.880Z,3.72
2023-05-26T12:51:17.554Z,3.25
2023-05-26T12:53:52.438Z,3.05
2023-05-26T12:56:22.344Z,3.27
2023-05-26T12:58:52.014Z,3.25
2023-05-26T13:01:21.999Z,3.67
2023-05-26T13:06:27.823Z,3.08
2023-05-26T13:09:00.137Z,3.13
2023-05-26T13:11:29.790Z,3.30
2023-05-26T13:13:59.537Z,2.90
2023-05-26T13:16:29.201Z,3.33
2023-05-26T13:18:58.876Z,3.30
2023-05-26T13:21:31.771Z,3.53
2023-05-26T13:24:04.776Z,3.40
2023-05-26T13:26:34.736Z,3.38
2023-05-26T13:29:04.672Z,3.33
2023-05-26T13:31:35.797Z,3.65
2023-05-26T13:34:05.454Z,3.40
2023-05-26T13:36:37.124Z,3.40
2023-05-26T13:39:09.605Z,3.25
2023-05-26T13:41:39.762Z,3.22
2023-05-26T13:44:09.360Z,3.55
2023-05-26T13:46:39.760Z,3.50
2023-05-26T13:49:10.248Z,3.22
2023-05-26T13:51:39.893Z,3.30
2023-05-26T13:54:12.074Z,3.58
2023-05-26T13:56:42.777Z,3.60
2023-05-26T13:59:12.437Z,3.80
2023-05-26T14:01:42.770Z,3.50
2023-05-26T14:04:13.153Z,3.42
2023-05-26T14:06:42.924Z,3.40
2023-05-26T14:09:15.178Z,3.05
2023-05-26T14:11:44.853Z,3.72
2023-05-26T14:14:14.505Z,3.70
2023-05-26T14:16:44.262Z,3.28
2023-05-26T14:19:18.911Z,3.15
2023-05-26T14:22:09.181Z,3.63
2023-05-26T14:24:44.893Z,3.50
2023-05-26T14:27:14.902Z,3.15
2023-05-26T14:29:44.533Z,3.20
2023-05-26T14:32:16.162Z,3.03
2023-05-26T14:34:46.292Z,2.92
2023-05-26T14:37:16.769Z,3.20
2023-05-26T14:39:49.068Z,3.30
2023-05-26T14:42:18.755Z,3.63
2023-05-26T14:44:49.640Z,3.30
2023-05-26T14:47:19.977Z,3.30
2023-05-26T14:49:50.787Z,3.50
2023-05-26T14:52:20.415Z,3.50
2023-05-26T14:54:52.661Z,3.30
2023-05-26T14:57:22.929Z,3.20
2023-05-26T14:59:52.640Z,3.30
2023-05-26T15:02:23.416Z,2.88
2023-05-26T15:04:53.160Z,3.13
2023-05-26T15:07:23.092Z,3.20
2023-05-26T15:09:55.382Z,2.95
2023-05-26T15:12:25.301Z,3.15
2023-05-26T15:14:54.930Z,3.08
2023-05-26T15:17:24.824Z,2.80
2023-05-26T15:19:54.457Z,3.08
2023-05-26T15:22:24.110Z,3.05
2023-05-26T15:24:56.418Z,2.85
2023-05-26T15:27:27.909Z,3.10
2023-05-26T15:29:57.546Z,2.88
2023-05-26T15:32:27.912Z,3.03
2023-05-26T15:34:57.642Z,3.05
2023-05-26T15:37:29.207Z,3.10
2023-05-26T15:40:02.983Z,3.08
2023-05-26T15:42:32.971Z,3.17
2023-05-26T15:45:07.770Z,2.90
2023-05-26T15:47:37.814Z,3.08
2023-05-26T15:50:08.775Z,3.00
2023-05-26T15:52:39.767Z,2.53
2023-05-26T15:55:15.203Z,2.95
2023-05-26T15:57:45.145Z,2.75
2023-05-26T16:00:17.790Z,3.30
2023-05-26T16:02:47.517Z,3.25
2023-05-26T16:05:17.127Z,3.20
2023-05-26T16:07:46.883Z,2.90
2023-05-26T16:10:19.359Z,3.22
2023-05-26T16:12:48.970Z,3.20
2023-05-26T16:15:20.996Z,3.00
2023-05-26T16:17:52.501Z,3.30
2023-05-26T16:20:22.248Z,3.50
2023-05-26T16:22:52.102Z,3.35
2023-05-26T16:25:24.629Z,3.65
2023-05-26T16:27:54.520Z,2.92
2023-05-26T16:30:24.249Z,3.20
2023-05-26T16:32:53.931Z,3.40
2023-05-26T16:35:23.805Z,3.40
2023-05-26T16:37:53.566Z,2.97
2023-05-26T16:40:27.964Z,3.50
2023-05-26T16:42:57.610Z,2.83
2023-05-26T16:45:27.807Z,3.05
2023-05-26T16:47:58.589Z,2.67
2023-05-26T16:50:29.203Z,3.25
2023-05-26T16:52:58.881Z,3.08
2023-05-26T16:55:33.642Z,3.33
2023-05-26T16:58:04.782Z,3.22
2023-05-26T17:00:34.454Z,3.13
2023-05-26T17:03:04.172Z,3.08
2023-05-26T17:05:33.900Z,3.10
2023-05-26T17:08:03.790Z,3.08
2023-05-26T17:10:36.824Z,3.30
2023-05-26T17:13:06.433Z,3.10
2023-05-26T17:15:36.077Z,3.20
2023-05-26T17:18:05.927Z,3.22
2023-05-26T17:20:38.817Z,3.88
2023-05-26T17:23:10.037Z,3.45
2023-05-26T17:25:45.987Z,2.95
2023-05-26T17:28:16.815Z,3.10
2023-05-26T17:30:46.562Z,2.90
2023-05-26T17:33:18.663Z,3.22
2023-05-26T17:35:48.323Z,2.95
2023-05-26T17:38:18.312Z,3.05
2023-05-26T17:40:51.987Z,3.00
2023-05-26T17:43:21.728Z,3.33
2023-05-26T17:45:51.437Z,3.00
2023-05-26T17:48:21.059Z,3.40
2023-05-26T17:50:51.765Z,3.28
2023-05-26T17:53:22.140Z,3.10
2023-05-26T17:55:57.778Z,3.35
2023-05-26T17:58:27.421Z,3.25
2023-05-26T18:00:58.277Z,3.03
2023-05-26T18:03:28.476Z,3.05
2023-05-26T18:05:58.227Z,3.13
2023-05-26T18:08:30.524Z,2.95
2023-05-26T18:11:06.418Z,3.17
2023-05-26T18:16:07.847Z,2.92
2023-05-26T18:18:37.584Z,3.40
2023-05-26T18:21:09.397Z,3.65
2023-05-26T18:23:38.996Z,3.20
2023-05-26T18:26:11.356Z,3.60
2023-05-26T18:28:40.999Z,3.35
2023-05-26T18:31:12.316Z,3.53
2023-05-26T18:33:42.784Z,3.85
2023-05-26T18:36:12.446Z,3.67
2023-05-26T18:38:42.774Z,3.65
2023-05-26T18:41:15.747Z,3.78
2023-05-26T18:43:45.429Z,3.92
2023-05-26T18:46:15.154Z,4.20
2023-05-26T18:48:44.856Z,4.13
2023-05-26T18:51:15.880Z,4.07
2023-05-26T18:53:45.532Z,4.40
2023-05-26T18:56:17.746Z,4.90
2023-05-26T18:58:47.585Z,4.68
2023-05-26T19:01:17.810Z,4.45
2023-05-26T19:03:50.896Z,4.30
2023-05-26T19:06:22.976Z,4.53
2023-05-26T19:08:52.757Z,4.32
2023-05-26T19:11:27.792Z,4.32
2023-05-26T19:13:57.404Z,4.37
2023-05-26T19:16:27.888Z,4.25
2023-05-26T19:18:58.187Z,4.88
2023-05-26T19:21:33.748Z,4.70
2023-05-26T19:24:05.283Z,4.28
2023-05-26T19:26:41.766Z,4.72
2023-05-26T19:29:12.427Z,4.78
2023-05-26T19:31:42.176Z,3.92
2023-05-26T19:34:13.146Z,4.43
2023-05-26T19:36:43.478Z,4.50
2023-05-26T19:39:15.373Z,4.50
2023-05-26T19:41:49.763Z,4.40
2023-05-26T19:44:20.609Z,4.20
2023-05-26T19:46:52.804Z,4.55
2023-05-26T19:49:22.581Z,3.90
2023-05-26T19:51:52.291Z,4.90
2023-05-26T19:54:21.936Z,4.45
2023-05-26T19:56:54.993Z,4.63
2023-05-26T19:59:24.770Z,4.85
2023-05-26T20:01:54.505Z,4.40
2023-05-26T20:04:25.949Z,4.70
2023-05-26T20:06:56.839Z,4.35
2023-05-26T20:09:26.533Z,4.97
2023-05-26T20:11:58.728Z,4.28
2023-05-26T20:14:28.787Z,5.00
2023-05-26T20:16:58.837Z,4.47
2023-05-26T20:19:28.736Z,4.10
2023-05-26T20:21:58.437Z,4.60
2023-05-26T20:24:28.346Z,4.28
2023-05-26T20:27:00.543Z,4.60
2023-05-26T20:29:30.457Z,4.78
2023-05-26T20:32:02.476Z,4.95
2023-05-26T20:34:32.786Z,5.00
2023-05-26T20:37:02.430Z,5.07
2023-05-26T20:39:32.745Z,4.88
2023-05-26T20:42:05.262Z,4.93
2023-05-26T20:44:35.742Z,5.20
2023-05-26T20:47:06.797Z,5.22
2023-05-26T20:49:36.418Z,4.57
2023-05-26T20:52:06.389Z,5.57
2023-05-26T20:54:36.123Z,5.03
2023-05-26T20:57:09.870Z,5.18
2023-05-26T20:59:42.754Z,4.70
2023-05-26T21:02:13.017Z,4.68
2023-05-26T21:04:42.814Z,5.85
2023-05-26T21:07:12.773Z,4.85
2023-05-26T21:09:42.425Z,5.65
2023-05-26T21:12:15.842Z,5.05
2023-05-26T21:14:46.683Z,5.40
2023-05-26T21:17:16.661Z,4.43
2023-05-26T21:19:48.157Z,4.72
2023-05-26T21:22:17.905Z,5.07
2023-05-26T21:24:47.777Z,4.80
2023-05-26T21:27:20.056Z,5.10
2023-05-26T21:29:52.798Z,4.80
2023-05-26T21:32:22.527Z,5.18
2023-05-26T21:34:52.742Z,5.10
2023-05-26T21:37:22.530Z,4.78
2023-05-26T21:39:52.359Z,4.95
2023-05-26T21:42:24.772Z,5.15
2023-05-26T21:44:54.737Z,5.07
2023-05-26T21:47:25.129Z,5.10
2023-05-26T21:49:54.752Z,5.65
2023-05-26T21:52:24.980Z,5.50
2023-05-26T21:54:55.777Z,4.80
2023-05-26T21:57:28.032Z,5.10
2023-05-26T21:59:58.751Z,4.95
2023-05-26T22:02:29.790Z,4.68
2023-05-26T22:04:59.512Z,4.75
2023-05-26T22:07:29.119Z,5.30
2023-05-26T22:09:59.751Z,5.18
2023-05-26T22:12:32.149Z,4.85
2023-05-26T22:15:02.745Z,4.95
2023-05-26T22:17:32.457Z,5.28
2023-05-26T22:20:02.796Z,5.38
2023-05-26T22:22:32.521Z,5.00
2023-05-26T22:25:02.184Z,5.15
2023-05-26T22:27:34.403Z,4.68
2023-05-26T22:30:04.265Z,4.63
2023-05-26T22:32:34.077Z,4.93
2023-05-26T22:35:04.813Z,4.63
2023-05-26T22:37:34.409Z,5.05
2023-05-26T22:40:04.588Z,4.63
2023-05-26T22:42:36.839Z,5.13
2023-05-26T22:45:07.774Z,4.75
2023-05-26T22:47:37.382Z,4.68
2023-05-26T22:50:10.719Z,5.05
2023-05-26T22:52:40.686Z,4.60
2023-05-26T22:55:11.376Z,4.90
2023-05-26T22:57:43.938Z,5.18
2023-05-26T23:00:14.990Z,5.40
2023-05-26T23:02:44.897Z,5.80
2023-05-26T23:05:14.582Z,5.00
2023-05-26T23:07:44.489Z,5.05
2023-05-26T23:10:14.323Z,4.50
2023-05-26T23:12:46.739Z,5.30
2023-05-26T23:15:16.946Z,5.07
2023-05-26T23:17:47.891Z,4.88
2023-05-26T23:20:17.896Z,4.65
2023-05-26T23:22:47.767Z,4.78
2023-05-26T23:25:18.379Z,4.97
2023-05-26T23:27:51.756Z,5.28
2023-05-26T23:30:21.818Z,4.97
2023-05-26T23:32:51.537Z,5.28
2023-05-26T23:35:21.168Z,5.05
2023-05-26T23:37:52.753Z,5.00
2023-05-26T23:40:28.698Z,5.00
2023-05-26T23:43:02.762Z,5.28
2023-05-26T23:45:32.375Z,5.28
2023-05-26T23:48:05.835Z,5.97
2023-05-26T23:50:35.495Z,4.93
2023-05-26T23:53:06.226Z,5.03
2023-05-26T23:55:36.260Z,4.78
2023-05-26T23:58:08.653Z,5.18
